Time;durP1;ratioP1;P1;durP2;ratioP2;P2;SDS_P1;SDS_P2;PMS_P1;PMS_P2;Temp;Humidity;BMP_temperature;BMP_pressure;BME280_temperature;BME280_humidity;BME280_pressure;Samples;Min_cycle;Max_cycle;Signal;HPM_P1;HPM_P2
2022/07/05 00:01:52;;;;;;;4.22;2.80;;;12.70;99.90;;;;;;5067520;28;20119;-84
2022/07/05 00:04:18;;;;;;;8.27;3.58;;;12.70;99.90;;;;;;5037369;28;20052;-84
2022/07/05 00:09:29;;;;;;;7.97;4.70;;;12.70;99.90;;;;;;5033338;28;20111;-84
2022/07/05 00:11:55;;;;;;;5.38;3.85;;;12.70;99.90;;;;;;5067032;28;20045;-84
2022/07/05 00:14:21;;;;;;;8.95;3.72;;;12.70;99.90;;;;;;5035580;28;20074;-84
2022/07/05 00:16:47;;;;;;;5.63;3.42;;;12.70;99.90;;;;;;5066264;28;20436;-84
2022/07/05 00:19:12;;;;;;;7.60;4.53;;;12.60;99.90;;;;;;5067518;28;20045;-84
2022/07/05 00:21:38;;;;;;;9.43;3.70;;;12.60;99.90;;;;;;5067682;28;20397;-84
2022/07/05 00:24:04;;;;;;;8.00;4.03;;;12.60;99.90;;;;;;5066294;28;20104;-85
2022/07/05 00:26:30;;;;;;;4.80;3.72;;;12.60;99.90;;;;;;5050315;28;20041;-85
2022/07/05 00:28:55;;;;;;;7.10;4.18;;;12.60;99.90;;;;;;5066865;28;20120;-84
2022/07/05 00:31:21;;;;;;;5.22;3.38;;;12.50;99.90;;;;;;5033964;28;20045;-84
2022/07/05 00:33:47;;;;;;;6.85;3.92;;;12.50;99.90;;;;;;5066784;28;20092;-84
2022/07/05 00:36:12;;;;;;;10.38;3.55;;;12.50;99.90;;;;;;5034086;28;20124;-84
2022/07/05 00:38:38;;;;;;;4.00;2.75;;;12.50;99.90;;;;;;5034969;28;20514;-84
2022/07/05 00:41:04;;;;;;;4.43;2.88;;;12.40;99.90;;;;;;5066871;28;20056;-84
2022/07/05 00:43:30;;;;;;;3.10;2.90;;;12.40;99.90;;;;;;5066132;28;20029;-84
2022/07/05 00:45:56;;;;;;;17.23;3.47;;;12.40;99.90;;;;;;5034993;28;20041;-84
2022/07/05 00:48:22;;;;;;;6.20;3.88;;;12.30;99.90;;;;;;5034571;28;20037;-84
2022/07/05 00:50:49;;;;;;;5.60;3.17;;;12.30;99.90;;;;;;5065939;28;20048;-84
2022/07/05 00:53:15;;;;;;;4.35;3.40;;;12.30;99.90;;;;;;5033411;28;20107;-84
2022/07/05 00:55:44;;;;;;;4.85;3.65;;;12.40;99.90;;;;;;5033668;28;20041;-84
2022/07/05 00:58:10;;;;;;;5.50;3.22;;;12.30;99.90;;;;;;5065402;28;20052;-84
2022/07/05 01:00:36;;;;;;;6.95;3.40;;;12.30;99.90;;;;;;5066668;28;20120;-84
2022/07/05 01:03:03;;;;;;;4.90;3.53;;;12.20;99.90;;;;;;5086762;28;20132;-84
2022/07/05 01:05:31;;;;;;;3.97;3.40;;;12.20;99.90;;;;;;5050091;28;20050;-84
2022/07/05 01:08:00;;;;;;;4.57;3.70;;;12.10;99.90;;;;;;4993954;28;1169260;-83
2022/07/05 01:10:27;;;;;;;5.53;3.75;;;12.10;99.90;;;;;;5035576;28;20050;-84
2022/07/05 01:12:53;;;;;;;8.02;4.03;;;12.20;99.90;;;;;;5033146;28;20056;-84
2022/07/05 01:15:21;;;;;;;7.18;5.00;;;12.20;99.90;;;;;;5034089;28;20370;-84
2022/07/05 01:17:47;;;;;;;10.27;4.53;;;12.20;99.90;;;;;;5035266;28;20058;-84
2022/07/05 01:20:14;;;;;;;6.10;4.25;;;12.20;99.90;;;;;;5075706;28;20151;-84
2022/07/05 01:22:53;;;;;;;7.80;4.60;;;12.20;99.90;;;;;;5054985;28;20080;-84
2022/07/05 01:25:22;;;;;;;6.50;4.90;;;12.10;99.90;;;;;;5040170;28;20056;-84
2022/07/05 01:27:49;;;;;;;9.38;5.07;;;12.10;99.90;;;;;;5032706;28;20088;-84
2022/07/05 01:30:15;;;;;;;8.13;4.75;;;12.10;99.90;;;;;;5033916;28;20117;-84
2022/07/05 01:32:41;;;;;;;8.50;4.90;;;12.10;99.90;;;;;;5066044;28;20464;-84
2022/07/05 01:35:11;;;;;;;5.63;3.92;;;12.10;99.90;;;;;;5083298;28;20083;-84
2022/07/05 01:37:37;;;;;;;6.97;5.00;;;12.10;99.90;;;;;;5016637;28;20045;-84
2022/07/05 01:40:06;;;;;;;8.93;5.15;;;12.10;99.90;;;;;;5034304;28;20072;-84
2022/07/05 01:42:33;;;;;;;9.50;5.47;;;12.10;99.90;;;;;;5042108;28;20064;-84
2022/07/05 01:44:58;;;;;;;6.43;4.47;;;12.10;99.90;;;;;;5034564;28;20053;-84
2022/07/05 01:47:24;;;;;;;7.97;4.82;;;12.10;99.90;;;;;;5033906;28;20049;-84
2022/07/05 01:49:54;;;;;;;8.73;5.22;;;12.10;99.90;;;;;;5066466;28;20042;-84
2022/07/05 01:52:21;;;;;;;6.25;4.72;;;12.10;99.90;;;;;;5045258;28;20045;-84
2022/07/05 01:54:47;;;;;;;6.65;5.25;;;12.10;99.90;;;;;;5051796;28;20126;-84
2022/07/05 01:57:14;;;;;;;5.47;4.97;;;12.00;99.90;;;;;;5066898;28;20049;-84
2022/07/05 01:59:40;;;;;;;5.32;4.22;;;12.00;99.90;;;;;;5066566;28;20378;-85
2022/07/05 02:02:08;;;;;;;5.32;4.43;;;12.00;99.90;;;;;;5065333;28;20051;-84
2022/07/05 02:04:35;;;;;;;7.55;4.57;;;12.00;99.90;;;;;;5049894;28;20041;-84
2022/07/05 02:07:05;;;;;;;7.53;4.78;;;12.00;99.90;;;;;;5066027;28;20499;-84
2022/07/05 02:09:30;;;;;;;6.50;4.88;;;12.00;99.90;;;;;;5065311;28;20045;-84
2022/07/05 02:11:56;;;;;;;5.65;4.07;;;12.00;99.90;;;;;;5066480;28;20511;-84
2022/07/05 02:14:22;;;;;;;4.60;3.67;;;12.00;99.90;;;;;;5034419;28;20128;-84
2022/07/05 02:16:48;;;;;;;4.28;3.72;;;11.90;99.90;;;;;;5033319;28;20504;-84
2022/07/05 02:19:14;;;;;;;7.10;4.20;;;11.90;99.90;;;;;;5034423;28;20067;-84
2022/07/05 02:21:40;;;;;;;5.97;4.05;;;11.80;99.90;;;;;;5077931;28;20041;-84
2022/07/05 02:24:07;;;;;;;8.13;4.57;;;11.70;99.90;;;;;;5044975;28;20041;-84
2022/07/05 02:26:32;;;;;;;4.25;3.85;;;11.70;99.90;;;;;;5049116;28;20054;-84
2022/07/05 02:28:59;;;;;;;9.48;5.25;;;11.70;99.90;;;;;;5065053;28;20038;-84
2022/07/05 02:31:25;;;;;;;5.72;4.88;;;11.70;99.90;;;;;;5033694;28;20048;-84
2022/07/05 02:33:52;;;;;;;5.90;5.15;;;11.60;99.90;;;;;;5034157;28;20393;-84
2022/07/05 02:36:18;;;;;;;6.60;5.15;;;11.50;99.90;;;;;;5039529;28;20053;-84
2022/07/05 02:38:44;;;;;;;5.45;4.93;;;11.50;99.90;;;;;;5083941;28;20040;-84
2022/07/05 02:41:11;;;;;;;9.00;6.00;;;11.50;99.90;;;;;;5033766;28;20042;-84
2022/07/05 02:43:38;;;;;;;8.70;5.43;;;11.50;99.90;;;;;;5033063;28;20052;-84
2022/07/05 02:46:04;;;;;;;5.82;5.22;;;11.60;99.90;;;;;;5032431;28;20049;-84
2022/07/05 02:48:31;;;;;;;6.25;5.10;;;11.60;99.90;;;;;;5033533;28;20037;-84
2022/07/05 02:50:57;;;;;;;6.90;4.82;;;11.60;99.90;;;;;;5033727;28;20045;-84
2022/07/05 02:53:24;;;;;;;7.40;5.50;;;11.60;99.90;;;;;;5065474;28;20491;-84
2022/07/05 02:55:50;;;;;;;5.35;4.35;;;11.60;99.90;;;;;;5048844;28;20080;-84
2022/07/05 02:58:16;;;;;;;8.73;4.80;;;11.60;99.90;;;;;;5031592;28;20088;-84
2022/07/05 03:00:47;;;;;;;7.88;6.93;;;11.60;99.90;;;;;;5065440;28;20054;-84
2022/07/05 03:03:13;;;;;;;8.13;5.93;;;11.60;99.90;;;;;;5033388;28;20104;-84
2022/07/05 03:05:39;;;;;;;7.03;6.32;;;11.60;99.90;;;;;;5032976;28;20049;-84
2022/07/05 03:08:05;;;;;;;13.10;6.13;;;11.60;99.90;;;;;;5033396;28;20054;-84
2022/07/05 03:10:31;;;;;;;9.50;6.07;;;11.60;99.90;;;;;;5033308;28;20060;-84
2022/07/05 03:12:57;;;;;;;7.82;6.10;;;11.70;99.90;;;;;;5032907;28;20124;-84
2022/07/05 03:15:23;;;;;;;6.72;5.78;;;11.70;99.90;;;;;;5033299;28;20117;-84
2022/07/05 03:17:48;;;;;;;10.48;5.25;;;11.70;99.90;;;;;;5032519;28;20568;-84
2022/07/05 03:20:14;;;;;;;7.82;5.43;;;11.70;99.90;;;;;;5051388;28;20045;-84
2022/07/05 03:22:40;;;;;;;6.72;5.03;;;11.70;99.90;;;;;;5067939;28;20037;-84
2022/07/05 03:25:06;;;;;;;7.28;5.70;;;11.70;99.90;;;;;;5064583;28;20125;-84
2022/07/05 03:27:32;;;;;;;8.43;5.18;;;11.70;99.90;;;;;;5065086;28;20069;-84
2022/07/05 03:29:57;;;;;;;8.27;5.30;;;11.60;99.90;;;;;;5033249;28;20451;-84
2022/07/05 03:32:23;;;;;;;6.32;5.13;;;11.60;99.90;;;;;;5081028;28;20049;-84
2022/07/05 03:34:49;;;;;;;7.85;5.45;;;11.60;99.90;;;;;;5033264;28;20034;-84
2022/07/05 03:37:15;;;;;;;8.13;4.50;;;11.60;99.90;;;;;;5033402;28;20116;-84
2022/07/05 03:39:40;;;;;;;9.50;5.55;;;11.60;99.90;;;;;;5031029;28;20399;-84
2022/07/05 03:42:06;;;;;;;9.55;5.68;;;11.60;99.90;;;;;;5043076;28;20045;-84
2022/07/05 03:44:32;;;;;;;6.00;5.40;;;11.60;99.90;;;;;;5085001;28;20124;-84
2022/07/05 03:46:59;;;;;;;9.18;6.28;;;11.60;99.90;;;;;;5085233;28;20084;-84
2022/07/05 03:49:25;;;;;;;7.50;6.45;;;11.60;99.90;;;;;;5068182;28;20071;-84
2022/07/05 03:51:51;;;;;;;7.75;5.95;;;11.60;99.90;;;;;;5070788;28;20106;-84
2022/07/05 03:54:17;;;;;;;6.72;6.03;;;11.60;99.90;;;;;;5064423;28;20049;-84
2022/07/05 03:56:43;;;;;;;7.65;6.07;;;11.60;99.90;;;;;;5033125;28;20424;-84
2022/07/05 03:59:09;;;;;;;7.22;6.28;;;11.70;99.90;;;;;;5033628;28;20038;-84
2022/07/05 04:01:35;;;;;;;12.27;6.65;;;11.70;99.90;;;;;;5018593;28;20401;-84
2022/07/05 04:04:00;;;;;;;8.80;6.95;;;11.70;99.90;;;;;;5036661;28;20045;-84
2022/07/05 04:06:26;;;;;;;8.02;7.25;;;11.70;99.90;;;;;;5068385;28;20049;-84
2022/07/05 04:08:52;;;;;;;8.95;6.63;;;11.70;99.90;;;;;;5035568;28;20045;-84
2022/07/05 04:11:18;;;;;;;10.35;6.28;;;11.80;99.90;;;;;;5044280;28;20095;-84
2022/07/05 04:13:44;;;;;;;7.93;5.50;;;11.80;99.90;;;;;;5054888;28;20484;-84
2022/07/05 04:16:10;;;;;;;10.07;6.50;;;11.90;99.90;;;;;;5050455;28;20041;-84
2022/07/05 04:18:36;;;;;;;7.05;6.38;;;11.80;99.90;;;;;;5068517;28;20053;-84
2022/07/05 04:21:03;;;;;;;9.80;6.82;;;11.90;99.90;;;;;;5040277;28;20033;-84
2022/07/05 04:23:28;;;;;;;7.53;6.25;;;11.90;99.90;;;;;;5046482;28;20459;-84
2022/07/05 04:25:54;;;;;;;6.95;6.10;;;11.90;99.90;;;;;;5055721;28;20080;-84
2022/07/05 04:28:21;;;;;;;10.13;6.20;;;12.00;99.90;;;;;;5054716;28;20523;-84
2022/07/05 04:30:47;;;;;;;10.00;6.60;;;12.00;99.90;;;;;;5035930;28;20041;-84
2022/07/05 04:33:13;;;;;;;7.05;5.88;;;12.00;99.90;;;;;;5036085;28;20048;-84
2022/07/05 04:35:38;;;;;;;8.07;5.93;;;12.10;99.90;;;;;;5053996;28;20057;-84
2022/07/05 04:38:04;;;;;;;7.80;6.35;;;12.10;99.90;;;;;;5088400;28;20037;-84
2022/07/05 04:40:30;;;;;;;7.93;6.03;;;12.20;99.90;;;;;;5045529;28;20565;-85
2022/07/05 04:42:56;;;;;;;5.80;5.30;;;12.30;99.90;;;;;;5060357;28;20032;-83
2022/07/05 04:45:22;;;;;;;8.93;6.38;;;12.40;99.90;;;;;;5048276;28;20045;-83
2022/07/05 04:47:47;;;;;;;5.40;5.00;;;12.50;99.90;;;;;;5054341;28;20080;-85
2022/07/05 04:50:13;;;;;;;5.82;4.80;;;12.60;99.90;;;;;;5029505;28;20045;-85
2022/07/05 04:52:39;;;;;;;5.38;4.80;;;12.70;99.90;;;;;;5068279;28;20385;-85
2022/07/05 04:55:05;;;;;;;6.93;4.53;;;12.80;99.90;;;;;;5053775;28;20081;-85
2022/07/05 04:57:39;;;;;;;4.70;4.35;;;13.00;99.90;;;;;;5051152;28;20389;-82
2022/07/05 05:00:05;;;;;;;6.93;4.50;;;13.10;99.90;;;;;;5054831;28;20049;-83
2022/07/05 05:02:31;;;;;;;7.55;3.90;;;13.20;99.90;;;;;;5055300;28;20049;-83
2022/07/05 05:04:57;;;;;;;9.82;4.65;;;13.30;99.90;;;;;;5054610;28;20039;-83
2022/07/05 05:07:23;;;;;;;4.68;4.20;;;13.30;99.90;;;;;;5054087;28;20377;-83
2022/07/05 05:09:48;;;;;;;5.68;3.88;;;13.40;99.90;;;;;;5054233;28;20111;-83
2022/07/05 05:12:14;;;;;;;5.65;4.38;;;13.50;99.90;;;;;;5052116;28;20079;-83
2022/07/05 05:14:40;;;;;;;4.43;4.03;;;13.60;99.90;;;;;;5053688;28;20094;-83
2022/07/05 05:17:05;;;;;;;9.15;4.15;;;13.60;99.90;;;;;;5054602;28;20102;-82
2022/07/05 05:19:31;;;;;;;5.75;4.15;;;13.70;99.90;;;;;;5052955;28;20048;-85
2022/07/05 05:21:57;;;;;;;10.30;4.25;;;13.70;99.90;;;;;;5055116;28;20094;-85
2022/07/05 05:24:23;;;;;;;5.28;4.18;;;13.80;99.90;;;;;;5034372;28;20103;-85
2022/07/05 05:26:50;;;;;;;3.78;3.38;;;13.90;99.90;;;;;;5034132;28;21074;-84
2022/07/05 05:29:17;;;;;;;5.78;3.75;;;14.00;99.90;;;;;;5035798;28;20041;-85
2022/07/05 05:31:43;;;;;;;7.95;3.38;;;14.00;99.90;;;;;;5033960;28;20517;-85
2022/07/05 05:34:08;;;;;;;9.30;3.70;;;14.20;99.90;;;;;;5033873;28;20071;-85
2022/07/05 05:36:34;;;;;;;4.18;3.53;;;14.20;99.90;;;;;;5034815;28;20049;-84
2022/07/05 05:39:00;;;;;;;8.65;3.78;;;14.30;99.90;;;;;;5034025;28;20060;-85
2022/07/05 05:41:26;;;;;;;10.57;5.38;;;14.40;99.90;;;;;;5034881;28;20053;-84
2022/07/05 05:43:52;;;;;;;5.15;3.10;;;14.50;99.90;;;;;;5035042;28;20040;-85
2022/07/05 05:46:17;;;;;;;4.40;3.05;;;14.60;99.90;;;;;;5065830;28;20088;-85
2022/07/05 05:48:43;;;;;;;3.72;2.75;;;14.70;99.90;;;;;;5046888;28;20040;-87
2022/07/05 05:51:09;;;;;;;6.32;2.90;;;14.80;99.90;;;;;;5087123;28;20044;-86
2022/07/05 05:53:35;;;;;;;4.25;2.45;;;14.90;99.90;;;;;;5076314;28;20033;-85
2022/07/05 05:56:00;;;;;;;5.85;2.47;;;15.00;99.90;;;;;;5066306;28;20458;-86
2022/07/05 05:58:26;;;;;;;4.65;2.03;;;15.10;99.90;;;;;;5075754;28;20071;-85
2022/07/05 06:00:52;;;;;;;3.33;2.10;;;15.20;99.90;;;;;;5053635;28;20484;-84
2022/07/05 06:03:23;;;;;;;6.18;1.77;;;15.30;99.90;;;;;;5075295;28;20095;-85
2022/07/05 06:05:49;;;;;;;3.83;1.67;;;15.40;99.90;;;;;;5066466;28;20045;-89
2022/07/05 06:08:15;;;;;;;6.50;1.60;;;15.50;99.90;;;;;;5070095;28;20562;-86
2022/07/05 06:10:41;;;;;;;4.15;1.42;;;15.60;99.90;;;;;;5053648;28;20045;-88
2022/07/05 06:13:12;;;;;;;6.25;2.20;;;15.70;99.90;;;;;;5066288;28;20050;-87
2022/07/05 06:15:39;;;;;;;6.30;1.73;;;15.80;99.90;;;;;;5065467;28;20056;-87
2022/07/05 06:18:06;;;;;;;5.55;1.30;;;15.90;99.90;;;;;;5033933;28;20140;-86
2022/07/05 06:20:34;;;;;;;9.80;1.40;;;15.90;99.90;;;;;;5066094;28;20486;-86
2022/07/05 06:23:01;;;;;;;4.18;1.00;;;16.00;99.90;;;;;;5032753;28;20394;-88
2022/07/05 06:25:27;;;;;;;6.07;1.02;;;16.10;99.90;;;;;;5049254;28;20509;-86
2022/07/05 06:27:59;;;;;;;4.82;1.20;;;16.20;99.90;;;;;;5065441;28;20075;-86
2022/07/05 06:30:28;;;;;;;5.90;0.98;;;16.30;99.90;;;;;;5034002;28;20079;-86
2022/07/05 06:32:55;;;;;;;8.20;1.25;;;16.40;99.90;;;;;;5033892;28;20099;-86
2022/07/05 06:35:21;;;;;;;6.07;1.10;;;16.50;99.90;;;;;;5065177;28;20054;-85
2022/07/05 06:37:51;;;;;;;3.00;1.08;;;16.60;99.90;;;;;;5033829;28;20116;-89
2022/07/05 06:40:22;;;;;;;9.27;1.75;;;16.70;99.90;;;;;;5033850;28;20045;-87
2022/07/05 06:42:50;;;;;;;5.55;1.08;;;16.90;99.90;;;;;;5032942;28;20485;-86
2022/07/05 06:45:16;;;;;;;4.75;0.80;;;17.00;99.90;;;;;;5066046;28;20075;-88
2022/07/05 06:47:42;;;;;;;3.97;0.73;;;17.10;99.90;;;;;;5065647;28;20138;-86
2022/07/05 06:50:10;;;;;;;3.60;0.52;;;17.20;99.90;;;;;;5064862;28;20096;-85
2022/07/05 06:52:36;;;;;;;4.65;0.80;;;17.30;99.90;;;;;;5032277;28;20527;-86
2022/07/05 06:55:02;;;;;;;7.35;1.02;;;17.40;99.90;;;;;;5048936;28;20054;-90
2022/07/05 06:57:28;;;;;;;8.50;1.02;;;17.30;99.90;;;;;;5064931;28;20045;-85
2022/07/05 06:59:54;;;;;;;8.30;1.00;;;17.30;99.90;;;;;;5033508;28;20044;-86
2022/07/05 07:02:20;;;;;;;3.15;0.80;;;17.30;99.90;;;;;;5033465;28;20041;-86
2022/07/05 07:04:47;;;;;;;6.18;1.77;;;17.40;99.90;;;;;;5064608;28;20048;-85
2022/07/05 07:10:02;;;;;;;3.90;0.95;;;17.60;99.90;;;;;;5032594;28;20077;-85
2022/07/05 07:12:31;;;;;;;3.83;0.80;;;17.50;99.90;;;;;;5033236;28;20124;-85
2022/07/05 07:14:57;;;;;;;8.30;2.15;;;17.40;99.90;;;;;;5033390;28;20049;-86
2022/07/05 07:17:24;;;;;;;4.75;1.02;;;17.30;99.90;;;;;;5031071;28;20462;-86
2022/07/05 07:19:50;;;;;;;6.47;0.95;;;17.20;99.90;;;;;;5033381;28;20042;-85
2022/07/05 07:22:15;;;;;;;12.02;1.50;;;17.30;99.90;;;;;;5065568;28;20083;-87
2022/07/05 07:24:41;;;;;;;7.50;1.38;;;17.50;99.90;;;;;;5031107;28;20084;-85
2022/07/05 07:27:08;;;;;;;7.97;0.77;;;17.50;99.90;;;;;;5033297;28;20061;-85
2022/07/05 07:29:37;;;;;;;6.63;0.95;;;17.50;99.90;;;;;;5049239;28;20492;-85
2022/07/05 07:32:04;;;;;;;6.05;1.13;;;17.40;99.90;;;;;;5034450;28;20045;-86
2022/07/05 07:34:31;;;;;;;5.20;0.90;;;17.30;99.90;;;;;;5038153;28;20047;-87
2022/07/05 07:36:57;;;;;;;5.07;1.50;;;17.20;99.90;;;;;;5078020;28;20101;-87
2022/07/05 07:39:26;;;;;;;3.85;0.70;;;17.00;99.90;;;;;;5064091;28;20044;-86
2022/07/05 07:41:53;;;;;;;6.50;1.00;;;17.00;99.90;;;;;;5054865;28;20128;-87
2022/07/05 07:44:21;;;;;;;4.53;0.85;;;17.10;99.90;;;;;;5088492;28;20048;-86
2022/07/05 07:46:47;;;;;;;7.30;1.17;;;17.20;99.90;;;;;;5048979;28;20511;-86
2022/07/05 07:49:13;;;;;;;7.50;1.20;;;17.30;99.90;;;;;;5068697;28;20049;-89
2022/07/05 07:51:40;;;;;;;8.25;0.98;;;17.50;99.90;;;;;;5042628;28;20377;-87
2022/07/05 07:54:06;;;;;;;7.18;1.15;;;17.60;99.90;;;;;;5055678;28;20037;-88
2022/07/05 07:56:32;;;;;;;5.88;0.93;;;17.80;99.90;;;;;;5053085;28;20053;-87
2022/07/05 07:58:58;;;;;;;8.32;1.52;;;18.00;99.90;;;;;;5044271;28;20037;-87
2022/07/05 08:01:24;;;;;;;4.15;0.90;;;18.10;99.90;;;;;;5053254;28;20397;-89
2022/07/05 08:03:50;;;;;;;2.83;0.75;;;18.10;99.90;;;;;;5057550;28;20066;-86
2022/07/05 08:06:19;;;;;;;5.53;1.13;;;18.00;99.90;;;;;;5055531;28;20551;-89
2022/07/05 08:08:47;;;;;;;2.55;0.80;;;18.00;99.90;;;;;;5036585;28;20053;-87
2022/07/05 08:11:14;;;;;;;6.40;0.70;;;17.90;99.90;;;;;;5018694;28;20049;-87
2022/07/05 08:13:40;;;;;;;5.07;0.60;;;17.90;99.90;;;;;;5086607;28;20048;-85
2022/07/05 08:16:08;;;;;;;2.72;0.98;;;18.00;99.90;;;;;;5055928;28;20485;-85
2022/07/05 08:21:39;;;;;;;5.00;1.00;;;18.10;99.90;;;;;;5050753;28;20052;-85
2022/07/05 08:24:08;;;;;;;5.35;0.60;;;18.10;99.90;;;;;;5057244;28;20073;-86
2022/07/05 08:26:34;;;;;;;5.07;1.20;;;18.10;99.90;;;;;;5088028;28;20041;-85
2022/07/05 08:29:02;;;;;;;4.93;1.00;;;18.20;99.90;;;;;;5053736;28;20045;-92
2022/07/05 08:31:30;;;;;;;4.22;0.90;;;18.20;99.90;;;;;;5088310;28;20049;-86
2022/07/05 08:33:56;;;;;;;2.92;0.90;;;18.30;99.90;;;;;;5087118;28;20081;-87
2022/07/05 08:36:22;;;;;;;3.03;1.00;;;18.40;99.90;;;;;;5087075;28;20041;-87
2022/07/05 08:38:48;;;;;;;6.43;0.70;;;18.50;99.90;;;;;;5087857;28;20118;-92
2022/07/05 08:41:18;;;;;;;1.63;0.70;;;18.60;99.90;;;;;;5055925;28;20492;-89
2022/07/05 08:43:46;;;;;;;2.63;0.80;;;18.60;99.90;;;;;;5021290;28;20053;-89
2022/07/05 08:46:13;;;;;;;4.95;0.65;;;18.60;99.90;;;;;;5067949;28;20106;-88
2022/07/05 08:48:43;;;;;;;3.88;0.82;;;18.40;99.90;;;;;;5050815;28;20044;-88
2022/07/05 08:51:21;;;;;;;3.38;0.68;;;18.30;99.90;;;;;;5055820;28;20045;-87
2022/07/05 08:53:48;;;;;;;2.42;1.13;;;18.10;99.90;;;;;;5055082;28;20120;-85
2022/07/05 08:56:15;;;;;;;4.97;0.70;;;18.10;99.90;;;;;;5038289;28;20056;-87
2022/07/05 08:58:41;;;;;;;3.50;0.95;;;18.10;99.90;;;;;;5053445;28;20060;-87
2022/07/05 09:01:09;;;;;;;1.52;0.70;;;18.30;99.90;;;;;;5041153;28;20049;-88
2022/07/05 09:03:49;;;;;;;6.32;1.50;;;18.50;99.90;;;;;;5034506;28;20509;-89
2022/07/05 09:06:24;;;;;;;6.22;0.98;;;18.70;99.90;;;;;;5051444;28;20056;-87
2022/07/05 09:08:59;;;;;;;2.67;0.88;;;18.80;99.90;;;;;;5052208;28;20130;-89
2022/07/05 09:11:35;;;;;;;4.30;0.70;;;18.70;99.90;;;;;;5067585;28;20489;-93
2022/07/05 09:14:02;;;;;;;4.03;0.98;;;18.70;99.90;;;;;;5068568;28;20048;-89
2022/07/05 09:16:29;;;;;;;5.10;0.85;;;18.80;99.90;;;;;;5034698;28;20052;-92
2022/07/05 09:18:56;;;;;;;4.18;0.90;;;18.80;99.90;;;;;;5081759;28;20049;-90
2022/07/05 09:21:26;;;;;;;3.80;0.80;;;18.80;99.90;;;;;;5074735;28;20060;-92
2022/07/05 09:24:00;;;;;;;3.45;0.80;;;18.90;99.90;;;;;;5066732;28;20042;-93
2022/07/05 09:26:43;;;;;;;2.78;0.88;;;19.00;99.90;;;;;;5035134;28;20560;-93
2022/07/05 09:29:11;;;;;;;2.10;0.82;;;18.90;99.90;;;;;;5090375;28;20044;-93
2022/07/05 09:31:39;;;;;;;3.40;0.95;;;18.80;99.90;;;;;;5073286;28;20083;-87
2022/07/05 09:34:07;;;;;;;3.63;0.80;;;18.80;99.90;;;;;;5052476;28;20042;-89
2022/07/05 09:36:51;;;;;;;2.70;0.80;;;18.80;99.90;;;;;;5066829;28;20492;-88
2022/07/05 09:39:40;;;;;;;6.03;1.13;;;18.80;99.90;;;;;;5049939;28;20041;-90
2022/07/05 09:42:26;;;;;;;4.13;0.90;;;18.80;99.90;;;;;;5050714;28;20084;-87
2022/07/05 09:44:53;;;;;;;5.25;0.70;;;18.90;99.90;;;;;;5043446;28;20053;-87
2022/07/05 09:47:22;;;;;;;4.50;0.82;;;19.00;99.90;;;;;;5054455;28;20044;-87
2022/07/05 09:49:50;;;;;;;1.27;0.60;;;19.10;99.90;;;;;;5034935;28;20088;-92
2022/07/05 09:52:35;;;;;;;3.15;1.05;;;19.20;99.90;;;;;;5032912;28;20167;-85
2022/07/05 09:55:07;;;;;;;;;;;19.10;99.90;;;;;;5044375;28;20105;-87
2022/07/05 09:57:43;;;;;;;3.45;0.80;;;19.00;99.90;;;;;;5068380;28;19991;-87
2022/07/05 10:00:14;;;;;;;11.98;1.10;;;19.10;99.90;;;;;;5051801;28;20073;-87
2022/07/05 10:02:43;;;;;;;2.10;0.80;;;19.10;99.90;;;;;;5073385;28;20053;-87
2022/07/05 10:05:16;;;;;;;4.13;0.70;;;19.00;99.90;;;;;;5066452;28;20049;-86
2022/07/05 10:07:50;;;;;;;6.22;0.88;;;18.90;99.90;;;;;;5034058;28;20060;-87
2022/07/05 10:10:18;;;;;;;3.20;0.85;;;18.90;99.90;;;;;;5034532;28;20052;-88
2022/07/05 10:12:47;;;;;;;4.45;0.98;;;18.80;99.90;;;;;;5079176;28;20094;-89
2022/07/05 10:15:16;;;;;;;3.78;1.05;;;18.70;99.90;;;;;;5053466;28;20098;-87
2022/07/05 10:17:46;;;;;;;1.52;0.70;;;18.70;99.90;;;;;;5042611;28;20413;-89
2022/07/05 10:20:32;;;;;;;4.65;0.70;;;18.70;99.90;;;;;;5065347;28;20053;-88
2022/07/05 10:22:58;;;;;;;4.05;0.85;;;18.70;99.90;;;;;;5031043;28;20523;-89
2022/07/05 10:25:28;;;;;;;2.55;0.60;;;18.80;99.90;;;;;;5052789;28;20045;-93
2022/07/05 10:27:54;;;;;;;4.65;0.90;;;18.90;99.90;;;;;;5085732;28;20045;-90
2022/07/05 10:30:22;;;;;;;1.83;0.60;;;19.00;99.90;;;;;;5052476;28;20053;-87
2022/07/05 10:32:48;;;;;;;4.03;0.77;;;19.20;99.90;;;;;;5038108;28;20037;-85
2022/07/05 10:35:17;;;;;;;5.38;0.85;;;19.40;99.90;;;;;;5053486;28;20110;-87
2022/07/05 10:37:44;;;;;;;2.72;0.70;;;19.60;99.90;;;;;;5067336;28;20095;-89
2022/07/05 10:40:10;;;;;;;5.32;1.02;;;19.70;99.90;;;;;;5066433;28;20042;-87
2022/07/05 10:42:43;;;;;;;3.67;0.75;;;19.90;99.90;;;;;;5067123;28;20432;-86
2022/07/05 10:45:28;;;;;;;7.38;0.85;;;19.90;99.90;;;;;;5049760;28;20493;-92
2022/07/05 10:48:09;;;;;;;4.28;0.80;;;19.70;99.90;;;;;;5087492;28;20075;-89
2022/07/05 10:50:49;;;;;;;5.57;1.00;;;19.60;99.90;;;;;;5076705;28;20049;-87
2022/07/05 10:53:36;;;;;;;5.78;0.82;;;19.40;99.90;;;;;;5059392;28;20052;-87
2022/07/05 10:56:04;;;;;;;5.68;0.93;;;19.10;99.90;;;;;;5046677;28;20053;-91
2022/07/05 10:58:32;;;;;;;3.67;0.70;;;19.00;99.90;;;;;;5056180;28;20052;-87
2022/07/05 11:01:19;;;;;;;2.40;0.60;;;19.00;99.90;;;;;;5070762;28;20099;-88
2022/07/05 11:04:05;;;;;;;4.43;0.80;;;19.10;99.90;;;;;;5053196;28;20374;-87
2022/07/05 11:06:39;;;;;;;1.80;0.52;;;19.10;99.90;;;;;;5052503;28;20045;-90
2022/07/05 11:09:08;;;;;;;4.50;1.00;;;19.10;99.90;;;;;;5056477;28;20060;-89
2022/07/05 11:12:06;;;;;;;4.13;0.60;;;19.10;99.90;;;;;;5089753;28;20184;-88
2022/07/05 11:14:34;;;;;;;2.92;0.70;;;19.10;99.90;;;;;;5055945;28;20057;-88
2022/07/05 11:17:13;;;;;;;2.92;0.90;;;19.00;99.90;;;;;;5056579;28;20055;-89
2022/07/05 11:20:00;;;;;;;2.58;0.50;;;19.20;99.90;;;;;;5089804;28;20129;-91
2022/07/05 11:22:26;;;;;;;4.20;0.98;;;19.30;99.90;;;;;;5056388;28;20055;-87
2022/07/05 11:24:53;;;;;;;6.60;0.63;;;19.30;99.90;;;;;;5089149;28;20128;-88
2022/07/05 11:27:18;;;;;;;2.72;0.90;;;19.30;99.90;;;;;;5072703;28;20053;-91
2022/07/05 11:29:51;;;;;;;1.40;0.60;;;19.40;99.90;;;;;;5089566;28;20052;-85
2022/07/05 11:32:20;;;;;;;5.57;0.52;;;19.50;99.90;;;;;;5055003;28;20049;-87
2022/07/05 11:34:51;;;;;;;3.70;0.85;;;19.60;99.90;;;;;;5089356;28;20488;-93
2022/07/05 11:37:28;;;;;;;10.68;0.98;;;19.80;99.90;;;;;;5089585;28;20048;-88
2022/07/05 11:40:12;;;;;;;2.58;0.65;;;19.80;99.90;;;;;;5073626;28;20044;-89
2022/07/05 11:42:45;;;;;;;6.85;0.90;;;19.70;99.90;;;;;;5090350;28;20136;-92
2022/07/05 11:45:12;;;;;;;4.20;0.80;;;19.60;99.90;;;;;;5090940;28;20044;-92
2022/07/05 11:47:38;;;;;;;4.50;0.98;;;19.40;99.90;;;;;;5044927;28;20044;-95
2022/07/05 11:50:05;;;;;;;4.32;0.90;;;19.10;99.90;;;;;;5037314;28;20081;-91
2022/07/05 11:52:32;;;;;;;7.05;1.70;;;19.00;99.90;;;;;;5036859;28;20056;-86
2022/07/05 11:55:00;;;;;;;2.42;0.80;;;19.00;99.90;;;;;;5046895;28;20496;-91
2022/07/05 11:57:26;;;;;;;5.93;1.00;;;19.30;99.90;;;;;;5039679;28;20453;-91
2022/07/05 11:59:52;;;;;;;3.88;0.93;;;19.50;99.90;;;;;;5045318;28;20049;-88
2022/07/05 12:02:18;;;;;;;2.83;0.75;;;19.60;99.90;;;;;;5037231;28;20037;-86
2022/07/05 12:05:02;;;;;;;6.00;1.23;;;19.50;99.90;;;;;;5043543;28;20036;-86
2022/07/05 12:07:34;;;;;;;7.10;1.23;;;19.50;99.90;;;;;;5050252;28;20046;-84
2022/07/05 12:12:48;;;;;;;2.30;0.45;;;19.60;99.90;;;;;;5054162;28;20044;-91
2022/07/05 12:15:19;;;;;;;1.55;0.60;;;19.70;99.90;;;;;;5040667;28;20041;-89
2022/07/05 12:17:51;;;;;;;4.22;0.60;;;19.70;99.90;;;;;;5068956;28;20489;-87
2022/07/05 12:20:24;;;;;;;7.43;1.10;;;19.70;99.90;;;;;;5051651;28;20052;-89
2022/07/05 12:22:51;;;;;;;5.75;0.95;;;19.70;99.90;;;;;;5057408;28;20045;-95
2022/07/05 12:25:23;;;;;;;2.72;0.77;;;19.80;99.90;;;;;;5040022;28;20154;-92
2022/07/05 12:27:51;;;;;;;5.97;0.90;;;19.80;99.90;;;;;;5078583;28;20064;-91
2022/07/05 12:30:17;;;;;;;8.15;1.15;;;19.90;99.90;;;;;;5043629;28;20045;-92
2022/07/05 12:33:00;;;;;;;3.03;0.80;;;19.80;99.90;;;;;;5072639;28;20416;-92
2022/07/05 12:35:32;;;;;;;4.20;0.75;;;19.80;99.90;;;;;;5051512;28;20049;-90
2022/07/05 12:38:14;;;;;;;4.85;0.85;;;19.70;99.90;;;;;;5036215;28;20215;-85
2022/07/05 12:40:41;;;;;;;5.40;0.75;;;19.60;99.90;;;;;;5035021;28;20042;-87
2022/07/05 12:43:10;;;;;;;2.22;0.65;;;19.50;99.90;;;;;;5034583;28;20060;-89
2022/07/05 12:45:38;;;;;;;3.60;0.90;;;19.40;99.90;;;;;;5056266;28;20056;-87
2022/07/05 12:48:05;;;;;;;2.20;0.68;;;19.40;99.90;;;;;;5088035;28;20072;-88
2022/07/05 12:50:46;;;;;;;4.95;0.82;;;19.40;99.90;;;;;;5036176;28;20386;-88
2022/07/05 12:59:08;;;;;;;2.90;0.82;;;19.60;99.90;;;;;;5079157;28;20084;-85
2022/07/05 13:01:40;;;;;;;5.13;1.30;;;19.50;99.90;;;;;;5054008;28;20489;-89
2022/07/05 13:04:13;;;;;;;1.98;0.52;;;19.50;99.90;;;;;;5048497;28;20102;-90
2022/07/05 13:06:55;;;;;;;2.40;0.68;;;19.40;99.90;;;;;;5070849;28;20144;-82
2022/07/05 13:09:38;;;;;;;3.92;0.60;;;19.30;99.90;;;;;;5057785;28;20064;-86